Time;durP1;ratioP1;P1;durP2;ratioP2;P2;SDS_P1;SDS_P2;PMS_P1;PMS_P2;Temp;Humidity;BMP_temperature;BMP_pressure;BME280_temperature;BME280_humidity;BME280_pressure;Samples;Min_cycle;Max_cycle;Signal;HPM_P1;HPM_P2
2022/11/16 00:01:23;;;;;;;16.40;9.20;;;;;;;8.96;100.00;97717.31;5067073;28;20048;-79
2022/11/16 00:03:51;;;;;;;18.80;8.13;;;;;;;8.97;100.00;97727.09;5065931;28;20048;-78
2022/11/16 00:06:18;;;;;;;17.00;8.68;;;;;;;8.99;100.00;97733.97;5067478;28;20132;-79
2022/11/16 00:09:20;;;;;;;14.95;7.80;;;;;;;8.97;100.00;97711.69;5067296;28;20051;-79
2022/11/16 00:11:37;;;;;;;12.50;6.95;;;;;;;9.14;100.00;97741.06;5063002;28;20064;-79
2022/11/16 00:14:04;;;;;;;12.65;6.10;;;;;;;9.13;100.00;97723.94;5058300;28;20055;-78
2022/11/16 00:16:30;;;;;;;11.70;5.93;;;;;;;9.17;100.00;97732.50;5069822;28;20057;-79
2022/11/16 00:18:58;;;;;;;10.23;6.25;;;;;;;9.11;100.00;97736.91;5068907;28;20045;-78
2022/11/16 00:21:25;;;;;;;11.18;5.70;;;;;;;9.12;100.00;97730.44;5069274;28;20058;-79
2022/11/16 00:23:52;;;;;;;9.95;5.43;;;;;;;9.06;100.00;97730.44;5066276;28;20040;-79
2022/11/16 00:29:42;;;;;;;8.55;5.13;;;;;;;8.96;100.00;97733.59;5044011;28;20101;-79
2022/11/16 00:32:09;;;;;;;8.68;5.55;;;;;;;9.13;100.00;97756.47;5068036;28;20047;-79
2022/11/16 00:34:36;;;;;;;14.88;6.78;;;;;;;9.08;100.00;97741.88;5068245;28;20359;-79
2022/11/16 00:37:02;;;;;;;12.30;5.97;;;;;;;9.04;100.00;97752.31;5065598;28;20078;-78
2022/11/16 00:39:29;;;;;;;12.95;5.57;;;;;;;8.95;100.00;97751.69;5058427;28;20459;-79
2022/11/16 00:41:55;;;;;;;17.77;6.60;;;;;;;8.93;100.00;97734.00;5069606;28;20048;-79
2022/11/16 00:44:22;;;;;;;11.90;6.05;;;;;;;8.98;100.00;97751.28;5055810;28;20052;-79
2022/11/16 00:46:50;;;;;;;10.25;6.35;;;;;;;9.03;100.00;97756.94;5065908;28;20703;-79
2022/11/16 00:49:16;;;;;;;12.90;6.68;;;;;;;8.90;100.00;97746.09;5069300;28;20419;-79
2022/11/16 00:51:43;;;;;;;11.50;6.32;;;;;;;9.03;100.00;97761.50;5064369;28;20507;-79
2022/11/16 00:54:09;;;;;;;12.63;6.05;;;;;;;9.07;100.00;97762.75;5065282;28;20058;-79
2022/11/16 00:56:37;;;;;;;15.38;6.47;;;;;;;8.99;100.00;97735.88;5065934;28;20056;-79
2022/11/16 00:59:03;;;;;;;10.40;6.22;;;;;;;9.18;100.00;97743.16;5067560;28;20044;-79
2022/11/16 01:01:30;;;;;;;11.57;7.03;;;;;;;9.17;100.00;97740.66;5067418;28;20045;-79
2022/11/16 01:03:58;;;;;;;14.07;6.40;;;;;;;9.06;100.00;97708.75;5068739;28;20541;-79
2022/11/16 01:06:25;;;;;;;11.90;7.05;;;;;;;9.09;100.00;97717.28;5069248;28;20052;-79
2022/11/16 01:08:51;;;;;;;12.57;7.15;;;;;;;9.08;100.00;97715.63;5062825;28;20040;-79
2022/11/16 01:14:11;;;;;;;11.55;6.00;;;;;;;8.98;100.00;97705.19;5037379;28;20056;-79
2022/11/16 01:16:38;;;;;;;10.68;6.13;;;;;;;8.99;100.00;97711.47;5067933;28;20510;-79
2022/11/16 01:19:06;;;;;;;10.82;5.47;;;;;;;8.97;100.00;97713.53;5064827;28;20143;-79
2022/11/16 01:21:33;;;;;;;9.05;5.53;;;;;;;8.90;100.00;97693.75;5059255;28;20124;-79
2022/11/16 01:24:00;;;;;;;11.10;6.82;;;;;;;8.97;100.00;97700.00;5065217;28;20179;-79
2022/11/16 01:26:27;;;;;;;10.43;5.30;;;;;;;8.93;100.00;97699.59;5065582;28;20056;-79
2022/11/16 01:28:53;;;;;;;9.75;5.13;;;;;;;8.87;100.00;97681.47;5062552;28;20041;-79
2022/11/16 01:31:20;;;;;;;8.65;5.07;;;;;;;8.95;100.00;97680.41;5066238;28;20048;-79
2022/11/16 01:33:46;;;;;;;10.00;5.20;;;;;;;8.85;100.00;97665.41;5057193;28;20048;-79
2022/11/16 01:36:15;;;;;;;10.45;5.60;;;;;;;8.99;100.00;97693.31;5070063;28;20555;-79
2022/11/16 01:38:42;;;;;;;8.40;4.82;;;;;;;8.88;100.00;97677.69;5064209;28;20048;-79
2022/11/16 01:41:09;;;;;;;8.55;5.00;;;;;;;8.88;100.00;97680.41;5050154;28;20510;-79
2022/11/16 01:43:55;;;;;;;12.13;5.50;;;;;;;8.88;100.00;97691.25;5056257;28;20059;-79
2022/11/16 01:46:22;;;;;;;10.93;4.95;;;;;;;8.96;100.00;97709.19;5065776;28;20499;-79
2022/11/16 01:48:52;;;;;;;14.85;5.93;;;;;;;8.97;100.00;97691.84;5067193;28;20495;-79
2022/11/16 01:51:21;;;;;;;9.50;5.40;;;;;;;8.83;100.00;97677.50;5064018;28;20044;-79
2022/11/16 01:53:48;;;;;;;10.57;5.25;;;;;;;8.83;100.00;97674.78;5060438;28;20057;-79
2022/11/16 01:56:15;;;;;;;11.25;5.13;;;;;;;8.83;100.00;97675.59;5069779;28;20052;-79
2022/11/16 01:58:42;;;;;;;9.18;4.82;;;;;;;8.80;100.00;97670.63;5068944;28;20155;-79
2022/11/16 02:01:08;;;;;;;11.10;5.72;;;;;;;8.92;100.00;97686.25;5059422;28;20139;-78
2022/11/16 02:03:37;;;;;;;11.05;4.78;;;;;;;8.94;100.00;97678.72;5055771;28;20049;-79
2022/11/16 02:06:24;;;;;;;10.40;5.13;;;;;;;8.83;100.00;97670.19;5059111;28;20067;-79
2022/11/16 02:12:14;;;;;;;9.52;4.38;;;;;;;8.77;100.00;97641.22;5059356;28;20056;-79
2022/11/16 02:14:59;;;;;;;6.28;3.83;;;;;;;8.76;100.00;97650.41;5065993;28;20055;-79
2022/11/16 02:17:35;;;;;;;7.72;4.45;;;;;;;8.72;100.00;97637.50;5061409;28;20071;-79
2022/11/16 02:20:43;;;;;;;6.65;4.57;;;;;;;8.88;100.00;97660.59;5071418;28;20048;-79
2022/11/16 02:23:27;;;;;;;10.57;4.53;;;;;;;8.64;100.00;97631.25;5055721;28;20052;-79
2022/11/16 02:26:06;;;;;;;10.48;4.85;;;;;;;8.79;100.00;97652.72;5063622;28;20492;-79
2022/11/16 02:28:47;;;;;;;8.07;4.15;;;;;;;8.63;100.00;97626.06;5068670;28;20052;-79
2022/11/16 02:31:20;;;;;;;12.38;4.25;;;;;;;8.70;100.00;97626.84;5066198;28;20044;-79
2022/11/16 02:33:50;;;;;;;7.18;3.85;;;;;;;8.70;100.00;97639.56;5058032;28;20052;-79
2022/11/16 02:36:19;;;;;;;;;;;;;;;8.83;100.00;97656.63;5065349;28;20052;-79
2022/11/16 02:38:51;;;;;;;7.43;3.85;;;;;;;8.73;100.00;97634.59;5069267;28;19924;-79
2022/11/16 02:41:21;;;;;;;9.35;4.25;;;;;;;8.75;100.00;97651.47;5068969;28;20044;-79
2022/11/16 02:43:52;;;;;;;7.55;4.32;;;;;;;8.86;100.00;97671.66;5068196;28;20044;-79
2022/11/16 02:46:23;;;;;;;7.68;4.38;;;;;;;8.72;100.00;97648.34;5068764;28;20059;-79
2022/11/16 02:48:55;;;;;;;5.38;4.22;;;;;;;8.71;100.00;97650.19;5060794;28;20055;-79
2022/11/16 02:51:24;;;;;;;8.80;4.43;;;;;;;8.89;100.00;97665.81;5070657;28;20101;-79
2022/11/16 02:54:01;;;;;;;5.35;3.47;;;;;;;8.86;100.00;97677.91;5060035;28;20087;-78
2022/11/16 02:56:28;;;;;;;9.98;4.88;;;;;;;8.78;100.00;97658.34;5059080;28;20052;-78
2022/11/16 02:58:56;;;;;;;9.02;4.38;;;;;;;8.90;100.00;97678.34;5060697;28;20053;-78
2022/11/16 03:01:30;;;;;;;6.75;4.47;;;;;;;8.84;100.00;97677.28;5065537;28;20074;-78
2022/11/16 03:04:03;;;;;;;6.70;4.95;;;;;;;8.88;100.00;97682.28;5060391;28;20041;-78
2022/11/16 03:06:33;;;;;;;7.45;4.13;;;;;;;8.74;100.00;97660.63;5066324;28;20060;-78
2022/11/16 03:09:05;;;;;;;9.82;5.13;;;;;;;8.87;100.00;97670.63;5070604;28;20049;-78
2022/11/16 03:14:20;;;;;;;9.52;4.32;;;;;;;8.67;100.00;97648.94;5069855;28;20097;-78
2022/11/16 03:16:51;;;;;;;7.18;4.38;;;;;;;8.71;100.00;97652.91;5066882;28;20048;-78
2022/11/16 03:19:25;;;;;;;6.25;3.58;;;;;;;8.80;100.00;97658.94;5070566;28;20523;-78
2022/11/16 03:21:58;;;;;;;5.65;3.05;;;;;;;8.85;100.00;97669.97;5062197;28;20051;-78
2022/11/16 03:24:25;;;;;;;5.00;3.92;;;;;;;8.88;100.00;97668.72;5070253;28;20048;-78
2022/11/16 03:27:02;;;;;;;7.65;3.90;;;;;;;8.78;100.00;97644.78;5068155;28;20447;-78
2022/11/16 03:29:31;;;;;;;4.45;2.80;;;;;;;8.85;100.00;97643.72;5061043;28;20045;-79
2022/11/16 03:32:05;;;;;;;5.20;3.70;;;;;;;8.85;100.00;97646.44;5061413;28;20047;-78
2022/11/16 03:34:35;;;;;;;6.82;3.50;;;;;;;8.93;100.00;97655.41;5070480;28;20425;-79
2022/11/16 03:37:05;;;;;;;4.45;3.10;;;;;;;9.12;100.00;97664.50;5066457;28;20213;-79
2022/11/16 03:39:34;;;;;;;;;;;;;;;9.10;100.00;97667.44;5070948;28;20048;-79
2022/11/16 03:42:04;;;;;;;5.03;2.70;;;;;;;8.81;100.00;97639.78;5064358;28;20286;-79
2022/11/16 03:44:31;;;;;;;4.95;2.67;;;;;;;8.92;100.00;97640.19;5066888;28;20037;-79
2022/11/16 03:46:58;;;;;;;7.20;3.00;;;;;;;8.94;100.00;97630.78;5074328;28;20060;-79
2022/11/16 03:49:29;;;;;;;11.20;3.35;;;;;;;8.89;100.00;97625.16;5066555;28;20060;-79
2022/11/16 03:51:56;;;;;;;4.38;3.05;;;;;;;8.91;100.00;97646.63;5069906;28;20484;-79
2022/11/16 03:54:22;;;;;;;3.72;2.83;;;;;;;8.85;100.00;97626.63;5069871;28;20412;-79
2022/11/16 03:56:49;;;;;;;4.25;2.90;;;;;;;8.85;100.00;97619.34;5074216;28;20127;-79
2022/11/16 03:59:16;;;;;;;4.13;2.45;;;;;;;8.82;100.00;97622.47;5066669;28;20056;-79
2022/11/16 04:01:42;;;;;;;7.68;2.45;;;;;;;8.93;100.00;97625.59;5069431;28;20040;-79
2022/11/16 04:24:10;;;;;;;4.00;2.78;;;;;;;8.91;100.00;97633.09;5071063;28;20059;-79
2022/11/16 04:26:12;;;;;;;5.45;3.20;;;;;;;8.88;100.00;97677.69;5072517;28;20051;-79
2022/11/16 04:28:39;;;;;;;6.45;3.78;;;;;;;8.92;100.00;97678.94;5071483;28;20047;-78
2022/11/16 04:39:20;;;;;;;7.88;4.57;;;;;;;9.00;100.00;97705.00;5066438;28;20071;-79
2022/11/16 04:47:15;;;;;;;5.85;3.67;;;;;;;8.83;100.00;97694.56;5063045;28;20384;-79
2022/11/16 04:49:41;;;;;;;10.20;5.32;;;;;;;9.03;100.00;97702.72;5069079;28;20049;-78
2022/11/16 04:52:09;;;;;;;11.70;6.65;;;;;;;8.90;100.00;97675.63;5067041;28;20135;-78
2022/11/16 04:54:36;;;;;;;13.45;9.73;;;;;;;8.88;100.00;97671.44;5060047;28;20048;-78
2022/11/16 04:57:03;;;;;;;11.20;5.90;;;;;;;8.86;100.00;97696.88;5066930;28;20044;-79
2022/11/16 04:59:29;;;;;;;6.82;4.45;;;;;;;8.93;100.00;97682.50;5067981;28;20552;-78
2022/11/16 05:02:08;;;;;;;8.05;4.70;;;;;;;8.97;100.00;97690.00;5072805;28;20494;-79
2022/11/16 05:04:35;;;;;;;8.65;4.38;;;;;;;8.96;100.00;97673.94;5064862;28;20493;-78
2022/11/16 05:07:01;;;;;;;8.63;3.97;;;;;;;8.92;100.00;97665.38;5065893;28;20045;-79
2022/11/16 05:09:29;;;;;;;10.40;4.30;;;;;;;8.97;100.00;97664.75;5063888;28;20049;-78
2022/11/16 05:11:56;;;;;;;8.20;4.85;;;;;;;8.96;100.00;97691.03;5072474;28;20055;-78
2022/11/16 05:14:22;;;;;;;9.07;4.47;;;;;;;8.89;100.00;97689.38;5068006;28;20079;-78
2022/11/16 05:16:49;;;;;;;7.85;4.15;;;;;;;9.03;100.00;97708.13;5071693;28;20492;-78
2022/11/16 05:21:59;;;;;;;6.13;4.35;;;;;;;9.15;100.00;97688.50;5066207;28;20483;-78
2022/11/16 05:24:34;;;;;;;9.63;4.90;;;;;;;8.94;100.00;97667.88;5069669;28;20377;-79
2022/11/16 05:27:03;;;;;;;9.25;4.38;;;;;;;8.89;100.00;97673.94;5068769;28;20044;-79
2022/11/16 05:29:30;;;;;;;13.18;4.32;;;;;;;8.85;100.00;97660.00;5066815;28;20506;-77
2022/11/16 05:31:57;;;;;;;6.47;4.40;;;;;;;8.82;100.00;97655.00;5070296;28;20169;-77
2022/11/16 05:34:24;;;;;;;10.38;4.38;;;;;;;8.99;100.00;97692.50;5070069;28;20055;-79
2022/11/16 05:36:50;;;;;;;8.63;4.18;;;;;;;8.97;100.00;97683.72;5072271;28;20049;-77
2022/11/16 05:39:18;;;;;;;11.48;5.55;;;;;;;8.90;100.00;97680.19;5059764;28;20614;-81
2022/11/16 05:42:01;;;;;;;6.38;4.75;;;;;;;8.82;100.00;97678.53;5072148;28;20124;-81
2022/11/16 05:44:29;;;;;;;7.03;4.43;;;;;;;8.71;100.00;97681.88;5068783;28;20060;-81
2022/11/16 05:46:56;;;;;;;6.85;4.90;;;;;;;8.63;100.00;97670.22;5070409;28;20055;-81
2022/11/16 05:49:23;;;;;;;8.20;4.70;;;;;;;8.66;100.00;97685.22;5065804;28;20053;-81
2022/11/16 05:51:50;;;;;;;6.35;4.05;;;;;;;8.66;100.00;97687.94;5070102;28;20040;-81
2022/11/16 05:54:19;;;;;;;7.97;4.07;;;;;;;8.81;100.00;97704.81;5070978;28;20051;-81
2022/11/16 05:56:46;;;;;;;6.35;4.40;;;;;;;8.79;100.00;97706.91;5069455;28;20136;-81
2022/11/16 05:59:13;;;;;;;6.78;4.38;;;;;;;8.66;100.00;97691.47;5060457;28;20078;-81
2022/11/16 06:01:41;;;;;;;12.02;4.30;;;;;;;8.79;100.00;97712.31;5059139;28;20063;-81
2022/11/16 06:04:08;;;;;;;8.60;4.43;;;;;;;8.75;100.00;97688.56;5062200;28;20512;-81
2022/11/16 06:06:35;;;;;;;7.32;4.47;;;;;;;8.69;100.00;97679.38;5058091;28;20053;-81
2022/11/16 06:09:01;;;;;;;7.97;3.83;;;;;;;8.72;100.00;97681.69;5064289;28;20047;-81
2022/11/16 06:11:28;;;;;;;6.43;4.10;;;;;;;8.77;100.00;97703.56;5054830;28;20049;-81
2022/11/16 06:13:55;;;;;;;9.35;4.25;;;;;;;8.58;100.00;97685.41;5069807;28;20075;-81
2022/11/16 06:16:23;;;;;;;6.90;4.35;;;;;;;8.70;100.00;97707.31;5066158;28;20092;-81
2022/11/16 06:18:51;;;;;;;8.07;4.50;;;;;;;8.67;100.00;97689.59;5070017;28;20051;-81
2022/11/16 06:21:19;;;;;;;8.68;4.53;;;;;;;8.48;100.00;97678.56;5063897;28;20155;-81
2022/11/16 06:23:45;;;;;;;5.55;4.20;;;;;;;8.67;100.00;97679.59;5069423;28;20518;-81
2022/11/16 06:26:13;;;;;;;6.50;4.15;;;;;;;8.48;100.00;97689.38;5069042;28;20086;-81
2022/11/16 06:28:39;;;;;;;6.55;4.30;;;;;;;8.48;100.00;97689.38;5065066;28;20044;-81
2022/11/16 06:31:06;;;;;;;6.97;4.43;;;;;;;8.66;100.00;97699.59;5061139;28;20033;-81
2022/11/16 06:33:36;;;;;;;11.48;5.00;;;;;;;8.50;100.00;97690.00;5066428;28;20052;-81
2022/11/16 06:36:04;;;;;;;6.40;4.43;;;;;;;8.41;100.00;97698.53;5056268;28;20449;-84
2022/11/16 06:38:31;;;;;;;7.72;5.43;;;;;;;8.48;100.00;97719.19;5053002;28;20048;-81
2022/11/16 06:40:58;;;;;;;13.88;5.10;;;;;;;8.44;100.00;97720.63;5053751;28;20485;-81
2022/11/16 06:43:26;;;;;;;7.82;4.95;;;;;;;8.36;100.00;97719.97;5068744;28;20059;-80
2022/11/16 06:45:55;;;;;;;6.72;4.32;;;;;;;8.58;100.00;97728.75;5069685;28;20055;-81
2022/11/16 06:48:22;;;;;;;8.85;4.93;;;;;;;8.54;100.00;97733.78;5071020;28;20460;-81
2022/11/16 06:50:50;;;;;;;9.43;5.53;;;;;;;8.41;100.00;97720.19;5059446;28;20048;-80
2022/11/16 06:53:19;;;;;;;7.22;4.95;;;;;;;8.50;100.00;97743.34;5067077;28;20049;-81
2022/11/16 06:55:46;;;;;;;9.48;5.43;;;;;;;8.43;100.00;97739.75;5061371;28;20060;-80
2022/11/16 06:58:12;;;;;;;13.50;5.80;;;;;;;8.47;100.00;97725.63;5060055;28;20052;-81
2022/11/16 07:00:39;;;;;;;10.30;5.50;;;;;;;8.54;100.00;97749.19;5056463;28;20049;-80
2022/11/16 07:03:05;;;;;;;10.23;4.28;;;;;;;8.54;100.00;97736.47;5064429;28;20063;-81
2022/11/16 07:05:32;;;;;;;9.07;5.43;;;;;;;8.50;100.00;97746.06;5065137;28;20067;-81
2022/11/16 07:07:59;;;;;;;8.48;5.05;;;;;;;8.57;100.00;97768.56;5060872;28;20091;-80
2022/11/16 07:10:27;;;;;;;12.25;5.50;;;;;;;8.46;100.00;97745.66;5063900;28;20087;-81
2022/11/16 07:12:54;;;;;;;12.43;5.60;;;;;;;8.41;100.00;97748.09;5054287;28;20072;-81
2022/11/16 07:15:21;;;;;;;6.30;4.50;;;;;;;8.46;100.00;97770.03;5056996;28;20080;-80
2022/11/16 07:17:48;;;;;;;6.55;5.30;;;;;;;8.55;100.00;97772.53;5056628;28;20480;-81
2022/11/16 07:20:17;;;;;;;7.82;5.18;;;;;;;8.51;100.00;97769.41;5058950;28;20045;-80
2022/11/16 07:22:43;;;;;;;8.32;4.80;;;;;;;8.58;100.00;97763.97;5067587;28;20495;-80
2022/11/16 07:25:10;;;;;;;5.25;4.00;;;;;;;8.50;100.00;97763.13;5067046;28;20044;-81
2022/11/16 07:27:39;;;;;;;7.63;3.92;;;;;;;8.55;100.00;97770.66;5058153;28;20483;-81
2022/11/16 07:30:07;;;;;;;8.50;4.50;;;;;;;8.76;100.00;97788.63;5055994;28;20415;-81
2022/11/16 07:32:34;;;;;;;7.32;4.75;;;;;;;8.76;100.00;97788.63;5066421;28;20043;-80
2022/11/16 07:35:00;;;;;;;6.20;4.32;;;;;;;8.70;100.00;97780.47;5060801;28;20044;-81
2022/11/16 07:37:30;;;;;;;7.35;4.53;;;;;;;8.61;100.00;97772.53;5069192;28;20078;-81
2022/11/16 07:39:59;;;;;;;5.47;3.97;;;;;;;8.81;100.00;97804.25;5057242;28;20061;-81
2022/11/16 07:42:26;;;;;;;7.32;4.80;;;;;;;8.76;100.00;97774.22;5057866;28;20059;-81
2022/11/16 07:44:54;;;;;;;9.32;4.90;;;;;;;8.86;100.00;97799.03;5059904;28;20506;-80
2022/11/16 07:47:20;;;;;;;7.07;4.90;;;;;;;8.88;100.00;97796.94;5054202;28;20051;-80
2022/11/16 07:49:47;;;;;;;7.50;4.60;;;;;;;8.85;100.00;97790.06;5060352;28;20048;-81
2022/11/16 07:52:14;;;;;;;7.03;4.60;;;;;;;8.97;100.00;97784.88;5059255;28;20041;-81
2022/11/16 07:54:41;;;;;;;7.68;5.38;;;;;;;9.17;100.00;97800.31;5064917;28;20143;-81
2022/11/16 07:57:07;;;;;;;8.90;4.97;;;;;;;9.13;100.00;97786.31;5056675;28;20051;-81
2022/11/16 07:59:34;;;;;;;7.65;5.15;;;;;;;9.11;100.00;97791.13;5070220;28;20492;-81
2022/11/16 08:02:02;;;;;;;8.98;4.88;;;;;;;9.28;100.00;97798.81;5062844;28;20040;-80
2022/11/16 08:04:28;;;;;;;10.55;4.90;;;;;;;9.32;100.00;97794.63;5066301;28;20048;-80
2022/11/16 08:06:55;;;;;;;11.38;5.28;;;;;;;9.59;100.00;97808.16;5069964;28;20052;-80
2022/11/16 08:09:21;;;;;;;8.32;5.55;;;;;;;9.53;100.00;97786.25;5070163;28;20044;-80
2022/11/16 08:11:49;;;;;;;8.77;4.95;;;;;;;9.72;100.00;97808.13;5060875;28;20048;-80
2022/11/16 08:14:18;;;;;;;11.07;4.95;;;;;;;9.86;100.00;97815.19;5066471;28;20143;-81
2022/11/16 08:16:44;;;;;;;8.35;4.63;;;;;;;9.84;100.00;97809.13;5069956;28;20135;-81
2022/11/16 08:19:12;;;;;;;7.25;3.92;;;;;;;9.94;100.00;97811.41;5069953;28;20049;-81
2022/11/16 08:21:39;;;;;;;9.40;3.88;;;;;;;9.97;100.00;97802.03;5061092;28;20049;-80
2022/11/16 08:24:06;;;;;;;6.95;3.70;;;;;;;10.01;100.00;97805.94;5069295;28;20060;-81
2022/11/16 08:26:32;;;;;;;4.90;3.63;;;;;;;10.09;100.00;97809.25;5068669;28;20045;-81
2022/11/16 08:28:59;;;;;;;5.65;3.35;;;;;;;10.05;100.00;97804.47;5071750;28;20476;-81
2022/11/16 08:31:27;;;;;;;5.57;3.42;;;;;;;10.11;100.00;97798.19;5061031;28;20069;-81
2022/11/16 08:33:55;;;;;;;11.55;3.85;;;;;;;10.35;100.00;97821.09;5072575;28;20044;-80
2022/11/16 08:36:23;;;;;;;4.38;3.03;;;;;;;10.30;100.00;97810.03;5071872;28;20059;-81
2022/11/16 08:38:51;;;;;;;8.80;3.53;;;;;;;10.24;100.00;97797.31;5062842;28;20056;-80
2022/11/16 08:41:19;;;;;;;4.35;2.58;;;;;;;10.29;100.00;97800.19;5073351;28;20052;-81
2022/11/16 08:43:49;;;;;;;4.18;2.50;;;;;;;10.39;100.00;97833.19;5057897;28;20098;-81
2022/11/16 08:46:16;;;;;;;;;;;;;;;10.46;100.00;97833.16;5073915;28;20123;-80
2022/11/16 08:48:43;;;;;;;6.65;2.30;;;;;;;10.37;100.00;97813.56;5064047;28;19920;-81
2022/11/16 08:51:11;;;;;;;7.13;3.17;;;;;;;10.36;100.00;97816.50;5064290;28;20482;-80
2022/11/16 08:53:39;;;;;;;6.47;3.33;;;;;;;10.36;100.00;97839.06;5057751;28;20041;-81
2022/11/16 08:56:07;;;;;;;4.57;2.30;;;;;;;10.25;100.00;97810.66;5053417;28;20431;-81
2022/11/16 08:58:34;;;;;;;5.22;2.45;;;;;;;10.45;100.00;97836.94;5068246;28;20083;-80
2022/11/16 09:01:08;;;;;;;5.43;2.58;;;;;;;10.59;100.00;97834.97;5073319;28;20056;-80
2022/11/16 09:03:35;;;;;;;6.20;2.78;;;;;;;10.54;100.00;97835.63;5072130;28;20048;-80
2022/11/16 09:06:02;;;;;;;5.05;2.28;;;;;;;10.54;100.00;97838.34;5067935;28;20480;-80
2022/11/16 09:08:28;;;;;;;7.10;2.92;;;;;;;10.75;100.00;97830.94;5068519;28;20044;-80
2022/11/16 09:10:57;;;;;;;9.65;2.40;;;;;;;10.65;100.00;97831.38;5075597;28;20056;-80
2022/11/16 09:13:24;;;;;;;4.28;2.40;;;;;;;10.59;100.00;97813.25;5066825;28;20407;-80
2022/11/16 09:15:55;;;;;;;3.42;2.42;;;;;;;10.82;100.00;97845.28;5075204;28;20063;-80
2022/11/16 09:18:22;;;;;;;4.95;2.50;;;;;;;10.68;100.00;97820.06;5063358;28;20479;-80
2022/11/16 09:20:49;;;;;;;5.65;2.45;;;;;;;10.69;100.00;97835.34;5070464;28;20041;-80
2022/11/16 09:23:15;;;;;;;4.85;3.35;;;;;;;10.83;100.00;97837.97;5054789;28;20049;-81
2022/11/16 09:25:43;;;;;;;4.72;2.25;;;;;;;10.70;100.00;97834.28;5054238;28;20049;-81
2022/11/16 09:28:12;;;;;;;5.03;2.15;;;;;;;10.93;100.00;97852.75;5057543;28;20182;-81
2022/11/16 09:30:39;;;;;;;10.07;2.50;;;;;;;10.89;100.00;97827.06;5075168;28;20044;-80
2022/11/16 09:33:05;;;;;;;4.65;1.73;;;;;;;10.78;100.00;97828.59;5074484;28;20053;-80
2022/11/16 09:35:34;;;;;;;7.18;2.05;;;;;;;10.82;100.00;97820.00;5071984;28;20427;-80
2022/11/16 09:38:00;;;;;;;4.05;1.65;;;;;;;10.91;100.00;97835.81;5072997;28;20053;-80
2022/11/16 09:40:30;;;;;;;7.47;1.60;;;;;;;10.97;100.00;97836.81;5074650;28;20143;-80
2022/11/16 09:43:01;;;;;;;;;;;;;;;11.00;100.00;97849.97;5073452;28;20067;-80
2022/11/16 09:45:38;;;;;;;1.98;1.48;;;;;;;10.76;100.00;97827.13;5074773;28;19926;-79
2022/11/16 09:48:11;;;;;;;6.13;1.60;;;;;;;10.67;100.00;97826.56;5071126;28;20049;-80
2022/11/16 09:50:44;;;;;;;2.47;1.17;;;;;;;10.69;100.00;97823.63;5070556;28;20106;-81
2022/11/16 09:53:33;;;;;;;3.53;1.50;;;;;;;10.71;100.00;97822.34;5062302;28;20048;-80
2022/11/16 09:56:04;;;;;;;5.50;1.20;;;;;;;10.75;100.00;97828.22;5053191;28;20056;-80
2022/11/16 09:58:38;;;;;;;3.42;1.40;;;;;;;10.90;100.00;97849.63;5057842;28;20060;-80
2022/11/16 10:01:19;;;;;;;3.15;1.35;;;;;;;10.80;100.00;97834.63;5070440;28;20051;-81
2022/11/16 10:03:49;;;;;;;5.40;1.80;;;;;;;10.91;100.00;97857.56;5071748;28;20057;-80
2022/11/16 10:06:22;;;;;;;3.55;0.93;;;;;;;10.70;100.00;97828.00;5072282;28;20080;-81
2022/11/16 10:08:51;;;;;;;4.70;1.00;;;;;;;11.01;100.00;97864.44;5067194;28;20067;-80
2022/11/16 10:11:31;;;;;;;3.03;1.85;;;;;;;10.85;100.00;97833.16;5068804;28;20175;-80
2022/11/16 10:14:03;;;;;;;;;;;;;;;11.13;100.00;97851.78;5064842;28;20123;-80
2022/11/16 10:16:40;;;;;;;3.17;1.23;;;;;;;11.11;100.00;97837.56;5072698;28;19994;-80
2022/11/16 10:19:19;;;;;;;6.07;1.15;;;;;;;11.23;100.00;97843.13;5073230;28;20044;-80
2022/11/16 10:21:57;;;;;;;5.90;0.93;;;;;;;11.37;100.00;97824.81;5069804;28;20081;-80
2022/11/16 10:24:29;;;;;;;5.97;1.10;;;;;;;11.41;100.00;97818.69;5061691;28;20526;-80
2022/11/16 10:27:09;;;;;;;4.30;1.40;;;;;;;11.66;100.00;97823.28;5066993;28;20037;-80
2022/11/16 10:29:40;;;;;;;;;;;;;;;11.77;100.00;97828.00;5070973;28;20056;-80
2022/11/16 10:32:20;;;;;;;3.80;1.35;;;;;;;11.49;100.00;97804.81;5071433;28;20360;-80
2022/11/16 10:34:52;;;;;;;2.47;1.00;;;;;;;11.59;100.00;97798.00;5064914;28;20076;-80
2022/11/16 10:37:20;;;;;;;4.68;1.10;;;;;;;11.69;100.00;97801.03;5071789;28;20060;-80
2022/11/16 10:39:49;;;;;;;3.72;1.15;;;;;;;11.69;100.00;97798.31;5064333;28;20044;-80
2022/11/16 10:42:23;;;;;;;6.35;1.27;;;;;;;11.69;100.00;97807.31;5068589;28;20058;-80
2022/11/16 10:44:59;;;;;;;5.35;1.40;;;;;;;11.61;100.00;97798.63;5072255;28;20099;-79
2022/11/16 10:47:37;;;;;;;1.63;1.20;;;;;;;11.55;100.00;97819.41;5068455;28;20499;-79
2022/11/16 10:50:19;;;;;;;5.80;1.23;;;;;;;11.52;100.00;97798.09;5065159;28;20074;-79
2022/11/16 10:52:46;;;;;;;4.20;1.23;;;;;;;11.46;100.00;97782.66;5062751;28;20487;-79
2022/11/16 10:55:14;;;;;;;4.40;1.00;;;;;;;11.55;100.00;97800.34;5066196;28;20048;-79
2022/11/16 10:58:00;;;;;;;5.13;1.65;;;;;;;11.57;100.00;97798.22;5062757;28;20062;-79
2022/11/16 11:00:39;;;;;;;7.95;2.00;;;;;;;11.32;100.00;97790.09;5071490;28;20123;-79
2022/11/16 11:03:09;;;;;;;4.65;1.17;;;;;;;11.39;100.00;97809.91;5070706;28;20122;-79
2022/11/16 11:05:53;;;;;;;4.07;1.10;;;;;;;11.31;100.00;97792.00;5067646;28;20480;-79
2022/11/16 11:08:29;;;;;;;6.45;1.50;;;;;;;11.31;100.00;97775.66;5067092;28;20056;-79
2022/11/16 11:12:36;;;;;;;3.35;1.23;;;;;;;11.33;100.00;97767.28;5062182;28;20437;-79
2022/11/16 11:14:02;;;;;;;7.60;1.70;;;;;;;11.63;100.00;97796.50;5062255;28;20048;-79
2022/11/16 11:16:29;;;;;;;6.57;1.75;;;;;;;11.72;100.00;97786.16;5067535;28;20561;-79
2022/11/16 11:18:57;;;;;;;6.93;1.73;;;;;;;11.63;100.00;97775.56;5067279;28;20713;-79
2022/11/16 11:21:27;;;;;;;6.53;1.80;;;;;;;11.67;100.00;97787.66;5066749;28;20049;-79
2022/11/16 11:23:56;;;;;;;3.33;1.10;;;;;;;11.74;100.00;97773.97;5069322;28;20044;-79
2022/11/16 11:26:29;;;;;;;2.88;1.23;;;;;;;11.67;100.00;97775.94;5061854;28;20404;-79
2022/11/16 11:28:57;;;;;;;6.43;2.35;;;;;;;11.67;100.00;97778.66;5069423;28;20041;-79
2022/11/16 11:31:29;;;;;;;2.90;1.00;;;;;;;11.70;100.00;97770.06;5070724;28;20479;-79
2022/11/16 11:34:02;;;;;;;2.90;1.35;;;;;;;11.79;100.00;97765.16;5064688;28;20052;-79
2022/11/16 11:36:33;;;;;;;3.92;1.27;;;;;;;11.82;100.00;97786.47;5050548;28;20048;-79
2022/11/16 11:39:03;;;;;;;3.35;1.23;;;;;;;11.70;100.00;97791.81;5052541;28;20057;-79
2022/11/16 11:41:34;;;;;;;2.10;1.03;;;;;;;11.60;100.00;97777.91;5070526;28;20052;-79
2022/11/16 11:44:03;;;;;;;1.95;1.05;;;;;;;11.54;100.00;97767.91;5066363;28;20347;-79
2022/11/16 11:46:33;;;;;;;4.35;1.20;;;;;;;11.46;100.00;97760.88;5070407;28;20087;-79
2022/11/16 11:49:10;;;;;;;3.63;1.38;;;;;;;11.69;100.00;97771.09;5064142;28;20040;-79
2022/11/16 11:51:41;;;;;;;4.28;1.58;;;;;;;11.59;100.00;97754.44;5069039;28;20488;-79
2022/11/16 11:54:16;;;;;;;5.35;1.42;;;;;;;11.47;100.00;97767.97;5069997;28;20047;-79
2022/11/16 11:56:43;;;;;;;8.43;1.75;;;;;;;11.43;100.00;97761.34;5070005;28;20503;-79
2022/11/16 11:59:15;;;;;;;2.60;1.20;;;;;;;11.52;100.00;97777.13;5066821;28;20056;-79
2022/11/16 12:02:19;;;;;;;2.58;1.30;;;;;;;11.55;100.00;97764.13;5061760;28;20052;-79
2022/11/16 12:05:10;;;;;;;6.00;1.38;;;;;;;11.63;100.00;97772.00;5070958;28;20061;-78
2022/11/16 12:07:57;;;;;;;6.90;1.33;;;;;;;11.63;100.00;97761.13;5072384;28;20063;-79
2022/11/16 12:10:38;;;;;;;5.43;1.10;;;;;;;11.67;100.00;97759.63;5074377;28;20044;-79
2022/11/16 12:13:23;;;;;;;6.63;1.70;;;;;;;11.68;100.00;97747.66;5073506;28;20413;-79
2022/11/16 12:16:02;;;;;;;9.00;1.50;;;;;;;11.91;100.00;97770.63;5070135;28;20060;-79
2022/11/16 12:18:53;;;;;;;8.13;1.63;;;;;;;11.82;100.00;97754.63;5069407;28;20525;-79
2022/11/16 12:21:33;;;;;;;5.32;1.35;;;;;;;11.83;100.00;97745.41;5073877;28;20053;-79
2022/11/16 12:24:05;;;;;;;;;;;;;;;11.91;100.00;97754.28;5066768;28;20051;-79
2022/11/16 12:26:46;;;;;;;2.45;1.25;;;;;;;11.98;100.00;97755.09;5058614;28;19947;-79
2022/11/16 12:29:24;;;;;;;3.30;1.27;;;;;;;11.93;100.00;97736.72;5073762;28;20060;-78
2022/11/16 12:32:34;;;;;;;2.58;1.15;;;;;;;12.00;100.00;97731.19;5073611;28;20049;-79